<?xml version="1.0" encoding="UTF-8" standalone="no" ?>
<gpx xmlns="http://www.topografix.com/GPX/1/1" xmlns:xsi="http://www.w3.org/2001/XMLSchema-instance" xsi:schemaLocation="http://www.topografix.com/GPX/1/1 http://www.topografix.com/GPX/1/1/gpx.xsd" version="1.1" creator="VisuGPX - https://www.visugpx.com">
  <metadata>
    <name>Roc Marot par Roquefixade</name>
  </metadata>
  <wpt lat="42.93535" lon="1.75459">
    <ele>813</ele>
    <name><![CDATA[Point de passage 1]]></name>
    <type><![CDATA[GENERIC]]></type>
  </wpt>
  <wpt lat="42.9353" lon="1.75453">
    <ele>823</ele>
    <name><![CDATA[Point de passage 2]]></name>
    <type><![CDATA[GENERIC]]></type>
  </wpt>
  <trk>
    <name><![CDATA[Roc Marot par Roquefixade ]]></name>
    <trkseg>
      <trkpt lat="42.93535" lon="1.75459">
        <ele>813</ele>
        <time>2026-04-07T08:17:28.000Z</time>
      </trkpt>
      <trkpt lat="42.93535" lon="1.75458">
        <ele>813</ele>
        <time>2026-04-07T08:17:31.000Z</time>
      </trkpt>
      <trkpt lat="42.93538" lon="1.7545">
        <ele>813</ele>
        <time>2026-04-07T08:18:10.000Z</time>
      </trkpt>
      <trkpt lat="42.9353" lon="1.75449">
        <ele>813</ele>
        <time>2026-04-07T08:18:40.000Z</time>
      </trkpt>
      <trkpt lat="42.93523" lon="1.75456">
        <ele>811</ele>
        <time>2026-04-07T08:19:37.000Z</time>
      </trkpt>
      <trkpt lat="42.93529" lon="1.75463">
        <ele>810</ele>
        <time>2026-04-07T08:19:49.000Z</time>
      </trkpt>
      <trkpt lat="42.93537" lon="1.7547">
        <ele>809</ele>
        <time>2026-04-07T08:20:40.000Z</time>
      </trkpt>
      <trkpt lat="42.93545" lon="1.75468">
        <ele>811</ele>
        <time>2026-04-07T08:20:52.000Z</time>
      </trkpt>
      <trkpt lat="42.93554" lon="1.75468">
        <ele>812</ele>
        <time>2026-04-07T08:21:04.000Z</time>
      </trkpt>
      <trkpt lat="42.9356" lon="1.75476">
        <ele>814</ele>
        <time>2026-04-07T08:21:22.000Z</time>
      </trkpt>
      <trkpt lat="42.93558" lon="1.75489">
        <ele>816</ele>
        <time>2026-04-07T08:21:32.000Z</time>
      </trkpt>
      <trkpt lat="42.93555" lon="1.755">
        <ele>816</ele>
        <time>2026-04-07T08:21:42.000Z</time>
      </trkpt>
      <trkpt lat="42.93548" lon="1.75511">
        <ele>818</ele>
        <time>2026-04-07T08:21:53.000Z</time>
      </trkpt>
      <trkpt lat="42.93546" lon="1.75523">
        <ele>818</ele>
        <time>2026-04-07T08:22:22.000Z</time>
      </trkpt>
      <trkpt lat="42.93549" lon="1.75538">
        <ele>819</ele>
        <time>2026-04-07T08:22:56.000Z</time>
      </trkpt>
      <trkpt lat="42.93553" lon="1.75549">
        <ele>819</ele>
        <time>2026-04-07T08:23:03.000Z</time>
      </trkpt>
      <trkpt lat="42.93562" lon="1.75553">
        <ele>820</ele>
        <time>2026-04-07T08:23:12.000Z</time>
      </trkpt>
      <trkpt lat="42.9357" lon="1.75546">
        <ele>821</ele>
        <time>2026-04-07T08:23:24.000Z</time>
      </trkpt>
      <trkpt lat="42.93577" lon="1.75539">
        <ele>821</ele>
        <time>2026-04-07T08:23:32.000Z</time>
      </trkpt>
      <trkpt lat="42.93585" lon="1.75534">
        <ele>822</ele>
        <time>2026-04-07T08:23:40.000Z</time>
      </trkpt>
      <trkpt lat="42.93593" lon="1.75527">
        <ele>823</ele>
        <time>2026-04-07T08:23:48.000Z</time>
      </trkpt>
      <trkpt lat="42.936" lon="1.75521">
        <ele>823</ele>
        <time>2026-04-07T08:23:58.000Z</time>
      </trkpt>
      <trkpt lat="42.93601" lon="1.75506">
        <ele>824</ele>
        <time>2026-04-07T08:24:09.000Z</time>
      </trkpt>
      <trkpt lat="42.936" lon="1.75494">
        <ele>824</ele>
        <time>2026-04-07T08:24:15.000Z</time>
      </trkpt>
      <trkpt lat="42.93608" lon="1.7549">
        <ele>824</ele>
        <time>2026-04-07T08:24:59.000Z</time>
      </trkpt>
      <trkpt lat="42.93616" lon="1.75494">
        <ele>824</ele>
        <time>2026-04-07T08:25:12.000Z</time>
      </trkpt>
      <trkpt lat="42.93625" lon="1.75498">
        <ele>825</ele>
        <time>2026-04-07T08:25:21.000Z</time>
      </trkpt>
      <trkpt lat="42.93633" lon="1.75501">
        <ele>825</ele>
        <time>2026-04-07T08:25:32.000Z</time>
      </trkpt>
      <trkpt lat="42.93642" lon="1.75499">
        <ele>825</ele>
        <time>2026-04-07T08:26:09.000Z</time>
      </trkpt>
      <trkpt lat="42.9365" lon="1.75492">
        <ele>825</ele>
        <time>2026-04-07T08:26:26.000Z</time>
      </trkpt>
      <trkpt lat="42.9366" lon="1.75491">
        <ele>825</ele>
        <time>2026-04-07T08:26:35.000Z</time>
      </trkpt>
      <trkpt lat="42.9367" lon="1.75489">
        <ele>825</ele>
        <time>2026-04-07T08:26:43.000Z</time>
      </trkpt>
      <trkpt lat="42.93678" lon="1.75484">
        <ele>825</ele>
        <time>2026-04-07T08:27:19.000Z</time>
      </trkpt>
      <trkpt lat="42.93687" lon="1.75479">
        <ele>825</ele>
        <time>2026-04-07T08:27:28.000Z</time>
      </trkpt>
      <trkpt lat="42.93696" lon="1.75474">
        <ele>825</ele>
        <time>2026-04-07T08:27:39.000Z</time>
      </trkpt>
      <trkpt lat="42.93701" lon="1.75464">
        <ele>825</ele>
        <time>2026-04-07T08:27:52.000Z</time>
      </trkpt>
      <trkpt lat="42.93709" lon="1.75458">
        <ele>825</ele>
        <time>2026-04-07T08:28:03.000Z</time>
      </trkpt>
      <trkpt lat="42.93719" lon="1.75453">
        <ele>825</ele>
        <time>2026-04-07T08:28:15.000Z</time>
      </trkpt>
      <trkpt lat="42.93727" lon="1.75447">
        <ele>825</ele>
        <time>2026-04-07T08:28:22.000Z</time>
      </trkpt>
      <trkpt lat="42.93733" lon="1.75438">
        <ele>825</ele>
        <time>2026-04-07T08:28:33.000Z</time>
      </trkpt>
      <trkpt lat="42.93735" lon="1.75426">
        <ele>827</ele>
        <time>2026-04-07T08:28:46.000Z</time>
      </trkpt>
      <trkpt lat="42.93739" lon="1.75415">
        <ele>829</ele>
        <time>2026-04-07T08:28:59.000Z</time>
      </trkpt>
      <trkpt lat="42.93745" lon="1.75405">
        <ele>830</ele>
        <time>2026-04-07T08:29:11.000Z</time>
      </trkpt>
      <trkpt lat="42.93748" lon="1.75394">
        <ele>832</ele>
        <time>2026-04-07T08:29:20.000Z</time>
      </trkpt>
      <trkpt lat="42.93754" lon="1.75386">
        <ele>833</ele>
        <time>2026-04-07T08:30:52.000Z</time>
      </trkpt>
      <trkpt lat="42.9376" lon="1.75376">
        <ele>834</ele>
        <time>2026-04-07T08:31:03.000Z</time>
      </trkpt>
      <trkpt lat="42.93765" lon="1.75364">
        <ele>836</ele>
        <time>2026-04-07T08:31:14.000Z</time>
      </trkpt>
      <trkpt lat="42.93771" lon="1.75354">
        <ele>838</ele>
        <time>2026-04-07T08:31:25.000Z</time>
      </trkpt>
      <trkpt lat="42.9378" lon="1.75347">
        <ele>840</ele>
        <time>2026-04-07T08:31:35.000Z</time>
      </trkpt>
      <trkpt lat="42.93789" lon="1.75342">
        <ele>842</ele>
        <time>2026-04-07T08:31:42.000Z</time>
      </trkpt>
      <trkpt lat="42.93798" lon="1.75336">
        <ele>842</ele>
        <time>2026-04-07T08:31:54.000Z</time>
      </trkpt>
      <trkpt lat="42.93802" lon="1.75324">
        <ele>842</ele>
        <time>2026-04-07T08:32:06.000Z</time>
      </trkpt>
      <trkpt lat="42.93805" lon="1.75311">
        <ele>842</ele>
        <time>2026-04-07T08:32:23.000Z</time>
      </trkpt>
      <trkpt lat="42.93806" lon="1.753">
        <ele>842</ele>
        <time>2026-04-07T08:32:32.000Z</time>
      </trkpt>
      <trkpt lat="42.93811" lon="1.75289">
        <ele>842</ele>
        <time>2026-04-07T08:32:46.000Z</time>
      </trkpt>
      <trkpt lat="42.9382" lon="1.75284">
        <ele>842</ele>
        <time>2026-04-07T08:33:04.000Z</time>
      </trkpt>
      <trkpt lat="42.93827" lon="1.75276">
        <ele>842</ele>
        <time>2026-04-07T08:33:13.000Z</time>
      </trkpt>
      <trkpt lat="42.9383" lon="1.75263">
        <ele>843</ele>
        <time>2026-04-07T08:33:22.000Z</time>
      </trkpt>
      <trkpt lat="42.93839" lon="1.75257">
        <ele>844</ele>
        <time>2026-04-07T08:33:59.000Z</time>
      </trkpt>
      <trkpt lat="42.93847" lon="1.75251">
        <ele>846</ele>
        <time>2026-04-07T08:34:18.000Z</time>
      </trkpt>
      <trkpt lat="42.93854" lon="1.75243">
        <ele>847</ele>
        <time>2026-04-07T08:34:28.000Z</time>
      </trkpt>
      <trkpt lat="42.93862" lon="1.75236">
        <ele>849</ele>
        <time>2026-04-07T08:34:37.000Z</time>
      </trkpt>
      <trkpt lat="42.9387" lon="1.75233">
        <ele>850</ele>
        <time>2026-04-07T08:34:45.000Z</time>
      </trkpt>
      <trkpt lat="42.93877" lon="1.75226">
        <ele>851</ele>
        <time>2026-04-07T08:34:56.000Z</time>
      </trkpt>
      <trkpt lat="42.93879" lon="1.75214">
        <ele>852</ele>
        <time>2026-04-07T08:35:09.000Z</time>
      </trkpt>
      <trkpt lat="42.93887" lon="1.75209">
        <ele>853</ele>
        <time>2026-04-07T08:35:23.000Z</time>
      </trkpt>
      <trkpt lat="42.93896" lon="1.7521">
        <ele>855</ele>
        <time>2026-04-07T08:35:35.000Z</time>
      </trkpt>
      <trkpt lat="42.93905" lon="1.75213">
        <ele>857</ele>
        <time>2026-04-07T08:35:48.000Z</time>
      </trkpt>
      <trkpt lat="42.93914" lon="1.75217">
        <ele>860</ele>
        <time>2026-04-07T08:36:00.000Z</time>
      </trkpt>
      <trkpt lat="42.93922" lon="1.75223">
        <ele>864</ele>
        <time>2026-04-07T08:36:11.000Z</time>
      </trkpt>
      <trkpt lat="42.93929" lon="1.75231">
        <ele>868</ele>
        <time>2026-04-07T08:36:55.000Z</time>
      </trkpt>
      <trkpt lat="42.93937" lon="1.75237">
        <ele>872</ele>
        <time>2026-04-07T08:37:18.000Z</time>
      </trkpt>
      <trkpt lat="42.93944" lon="1.75242">
        <ele>876</ele>
        <time>2026-04-07T08:37:50.000Z</time>
      </trkpt>
      <trkpt lat="42.93942" lon="1.75252">
        <ele>879</ele>
        <time>2026-04-07T08:38:03.000Z</time>
      </trkpt>
      <trkpt lat="42.93939" lon="1.75263">
        <ele>882</ele>
        <time>2026-04-07T08:38:28.000Z</time>
      </trkpt>
      <trkpt lat="42.93937" lon="1.75275">
        <ele>884</ele>
        <time>2026-04-07T08:39:28.000Z</time>
      </trkpt>
      <trkpt lat="42.93936" lon="1.75287">
        <ele>887</ele>
        <time>2026-04-07T08:39:52.000Z</time>
      </trkpt>
      <trkpt lat="42.93932" lon="1.75298">
        <ele>890</ele>
        <time>2026-04-07T08:40:02.000Z</time>
      </trkpt>
      <trkpt lat="42.93931" lon="1.75309">
        <ele>893</ele>
        <time>2026-04-07T08:40:18.000Z</time>
      </trkpt>
      <trkpt lat="42.93934" lon="1.7532">
        <ele>896</ele>
        <time>2026-04-07T08:41:26.000Z</time>
      </trkpt>
      <trkpt lat="42.93932" lon="1.75333">
        <ele>898</ele>
        <time>2026-04-07T08:41:52.000Z</time>
      </trkpt>
      <trkpt lat="42.93926" lon="1.75343">
        <ele>900</ele>
        <time>2026-04-07T08:42:06.000Z</time>
      </trkpt>
      <trkpt lat="42.93925" lon="1.75355">
        <ele>902</ele>
        <time>2026-04-07T08:42:21.000Z</time>
      </trkpt>
      <trkpt lat="42.93924" lon="1.75367">
        <ele>902</ele>
        <time>2026-04-07T08:43:00.000Z</time>
      </trkpt>
      <trkpt lat="42.93919" lon="1.75377">
        <ele>903</ele>
        <time>2026-04-07T08:43:10.000Z</time>
      </trkpt>
      <trkpt lat="42.93912" lon="1.75386">
        <ele>904</ele>
        <time>2026-04-07T08:43:21.000Z</time>
      </trkpt>
      <trkpt lat="42.93906" lon="1.75394">
        <ele>905</ele>
        <time>2026-04-07T08:43:36.000Z</time>
      </trkpt>
      <trkpt lat="42.93897" lon="1.75398">
        <ele>908</ele>
        <time>2026-04-07T08:43:44.000Z</time>
      </trkpt>
      <trkpt lat="42.93891" lon="1.75405">
        <ele>912</ele>
        <time>2026-04-07T08:44:09.000Z</time>
      </trkpt>
      <trkpt lat="42.93891" lon="1.75415">
        <ele>916</ele>
        <time>2026-04-07T08:45:05.000Z</time>
      </trkpt>
      <trkpt lat="42.93883" lon="1.75416">
        <ele>920</ele>
        <time>2026-04-07T08:45:17.000Z</time>
      </trkpt>
      <trkpt lat="42.93875" lon="1.75421">
        <ele>924</ele>
        <time>2026-04-07T08:45:43.000Z</time>
      </trkpt>
      <trkpt lat="42.93868" lon="1.75429">
        <ele>927</ele>
        <time>2026-04-07T08:45:57.000Z</time>
      </trkpt>
      <trkpt lat="42.93862" lon="1.75436">
        <ele>921</ele>
        <time>2026-04-07T08:47:10.000Z</time>
      </trkpt>
      <trkpt lat="42.93855" lon="1.7543">
        <ele>915</ele>
        <time>2026-04-07T08:48:09.000Z</time>
      </trkpt>
      <trkpt lat="42.93851" lon="1.75417">
        <ele>906</ele>
        <time>2026-04-07T08:48:20.000Z</time>
      </trkpt>
      <trkpt lat="42.93846" lon="1.75404">
        <ele>889</ele>
        <time>2026-04-07T08:48:37.000Z</time>
      </trkpt>
      <trkpt lat="42.93843" lon="1.75395">
        <ele>877</ele>
        <time>2026-04-07T08:49:04.000Z</time>
      </trkpt>
      <trkpt lat="42.93847" lon="1.75405">
        <ele>865</ele>
        <time>2026-04-07T08:49:13.000Z</time>
      </trkpt>
      <trkpt lat="42.93851" lon="1.75417">
        <ele>853</ele>
        <time>2026-04-07T08:49:34.000Z</time>
      </trkpt>
      <trkpt lat="42.93852" lon="1.75428">
        <ele>846</ele>
        <time>2026-04-07T08:49:59.000Z</time>
      </trkpt>
      <trkpt lat="42.93857" lon="1.75433">
        <ele>841</ele>
        <time>2026-04-07T08:50:23.000Z</time>
      </trkpt>
      <trkpt lat="42.93854" lon="1.75426">
        <ele>836</ele>
        <time>2026-04-07T08:51:53.000Z</time>
      </trkpt>
      <trkpt lat="42.93852" lon="1.75414">
        <ele>833</ele>
        <time>2026-04-07T08:52:11.000Z</time>
      </trkpt>
      <trkpt lat="42.93847" lon="1.75403">
        <ele>830</ele>
        <time>2026-04-07T08:53:03.000Z</time>
      </trkpt>
      <trkpt lat="42.93845" lon="1.75392">
        <ele>828</ele>
        <time>2026-04-07T08:53:12.000Z</time>
      </trkpt>
      <trkpt lat="42.93845" lon="1.7538">
        <ele>831</ele>
        <time>2026-04-07T08:53:31.000Z</time>
      </trkpt>
      <trkpt lat="42.93845" lon="1.75368">
        <ele>839</ele>
        <time>2026-04-07T08:53:47.000Z</time>
      </trkpt>
      <trkpt lat="42.93849" lon="1.7536">
        <ele>850</ele>
        <time>2026-04-07T08:54:18.000Z</time>
      </trkpt>
      <trkpt lat="42.9385" lon="1.75368">
        <ele>863</ele>
        <time>2026-04-07T08:55:04.000Z</time>
      </trkpt>
      <trkpt lat="42.93856" lon="1.75362">
        <ele>878</ele>
        <time>2026-04-07T08:55:54.000Z</time>
      </trkpt>
      <trkpt lat="42.93861" lon="1.75352">
        <ele>890</ele>
        <time>2026-04-07T08:56:52.000Z</time>
      </trkpt>
      <trkpt lat="42.93864" lon="1.75342">
        <ele>902</ele>
        <time>2026-04-07T08:57:13.000Z</time>
      </trkpt>
      <trkpt lat="42.93862" lon="1.75351">
        <ele>913</ele>
        <time>2026-04-07T08:59:30.000Z</time>
      </trkpt>
      <trkpt lat="42.93865" lon="1.75359">
        <ele>918</ele>
        <time>2026-04-07T08:59:45.000Z</time>
      </trkpt>
      <trkpt lat="42.93857" lon="1.7536">
        <ele>922</ele>
        <time>2026-04-07T09:00:47.000Z</time>
      </trkpt>
      <trkpt lat="42.93851" lon="1.75366">
        <ele>925</ele>
        <time>2026-04-07T09:01:04.000Z</time>
      </trkpt>
      <trkpt lat="42.93847" lon="1.7536">
        <ele>926</ele>
        <time>2026-04-07T09:01:16.000Z</time>
      </trkpt>
      <trkpt lat="42.93844" lon="1.7537">
        <ele>927</ele>
        <time>2026-04-07T09:02:26.000Z</time>
      </trkpt>
      <trkpt lat="42.93843" lon="1.75382">
        <ele>927</ele>
        <time>2026-04-07T09:02:36.000Z</time>
      </trkpt>
      <trkpt lat="42.93846" lon="1.75395">
        <ele>928</ele>
        <time>2026-04-07T09:02:57.000Z</time>
      </trkpt>
      <trkpt lat="42.93849" lon="1.75408">
        <ele>930</ele>
        <time>2026-04-07T09:03:11.000Z</time>
      </trkpt>
      <trkpt lat="42.93852" lon="1.75421">
        <ele>932</ele>
        <time>2026-04-07T09:03:40.000Z</time>
      </trkpt>
      <trkpt lat="42.93854" lon="1.75433">
        <ele>934</ele>
        <time>2026-04-07T09:04:07.000Z</time>
      </trkpt>
      <trkpt lat="42.93861" lon="1.7544">
        <ele>936</ele>
        <time>2026-04-07T09:04:29.000Z</time>
      </trkpt>
      <trkpt lat="42.93865" lon="1.75451">
        <ele>939</ele>
        <time>2026-04-07T09:05:45.000Z</time>
      </trkpt>
      <trkpt lat="42.93867" lon="1.75462">
        <ele>941</ele>
        <time>2026-04-07T09:06:14.000Z</time>
      </trkpt>
      <trkpt lat="42.93867" lon="1.75474">
        <ele>945</ele>
        <time>2026-04-07T09:06:29.000Z</time>
      </trkpt>
      <trkpt lat="42.93863" lon="1.75485">
        <ele>947</ele>
        <time>2026-04-07T09:07:14.000Z</time>
      </trkpt>
      <trkpt lat="42.93857" lon="1.75495">
        <ele>950</ele>
        <time>2026-04-07T09:07:26.000Z</time>
      </trkpt>
      <trkpt lat="42.93853" lon="1.75504">
        <ele>954</ele>
        <time>2026-04-07T09:07:46.000Z</time>
      </trkpt>
      <trkpt lat="42.93859" lon="1.75511">
        <ele>957</ele>
        <time>2026-04-07T09:09:22.000Z</time>
      </trkpt>
      <trkpt lat="42.93868" lon="1.75513">
        <ele>961</ele>
        <time>2026-04-07T09:09:48.000Z</time>
      </trkpt>
      <trkpt lat="42.93877" lon="1.75513">
        <ele>964</ele>
        <time>2026-04-07T09:11:22.000Z</time>
      </trkpt>
      <trkpt lat="42.93885" lon="1.75519">
        <ele>968</ele>
        <time>2026-04-07T09:11:43.000Z</time>
      </trkpt>
      <trkpt lat="42.9389" lon="1.75528">
        <ele>971</ele>
        <time>2026-04-07T09:12:01.000Z</time>
      </trkpt>
      <trkpt lat="42.93899" lon="1.75534">
        <ele>974</ele>
        <time>2026-04-07T09:12:29.000Z</time>
      </trkpt>
      <trkpt lat="42.93907" lon="1.7554">
        <ele>977</ele>
        <time>2026-04-07T09:14:48.000Z</time>
      </trkpt>
      <trkpt lat="42.93914" lon="1.75548">
        <ele>979</ele>
        <time>2026-04-07T09:15:00.000Z</time>
      </trkpt>
      <trkpt lat="42.93918" lon="1.75559">
        <ele>982</ele>
        <time>2026-04-07T09:15:15.000Z</time>
      </trkpt>
      <trkpt lat="42.93918" lon="1.75573">
        <ele>984</ele>
        <time>2026-04-07T09:17:35.000Z</time>
      </trkpt>
      <trkpt lat="42.93916" lon="1.75586">
        <ele>986</ele>
        <time>2026-04-07T09:17:45.000Z</time>
      </trkpt>
      <trkpt lat="42.93915" lon="1.75599">
        <ele>988</ele>
        <time>2026-04-07T09:17:57.000Z</time>
      </trkpt>
      <trkpt lat="42.93917" lon="1.75612">
        <ele>991</ele>
        <time>2026-04-07T09:18:18.000Z</time>
      </trkpt>
      <trkpt lat="42.93917" lon="1.75626">
        <ele>994</ele>
        <time>2026-04-07T09:18:35.000Z</time>
      </trkpt>
      <trkpt lat="42.93911" lon="1.75635">
        <ele>997</ele>
        <time>2026-04-07T09:19:10.000Z</time>
      </trkpt>
      <trkpt lat="42.93906" lon="1.75645">
        <ele>1000</ele>
        <time>2026-04-07T09:19:26.000Z</time>
      </trkpt>
      <trkpt lat="42.93902" lon="1.75656">
        <ele>1002</ele>
        <time>2026-04-07T09:19:43.000Z</time>
      </trkpt>
      <trkpt lat="42.93895" lon="1.75665">
        <ele>1004</ele>
        <time>2026-04-07T09:19:56.000Z</time>
      </trkpt>
      <trkpt lat="42.9389" lon="1.75675">
        <ele>1006</ele>
        <time>2026-04-07T09:20:13.000Z</time>
      </trkpt>
      <trkpt lat="42.93888" lon="1.75688">
        <ele>1009</ele>
        <time>2026-04-07T09:22:24.000Z</time>
      </trkpt>
      <trkpt lat="42.93886" lon="1.75702">
        <ele>1012</ele>
        <time>2026-04-07T09:22:33.000Z</time>
      </trkpt>
      <trkpt lat="42.93885" lon="1.75715">
        <ele>1015</ele>
        <time>2026-04-07T09:22:45.000Z</time>
      </trkpt>
      <trkpt lat="42.93884" lon="1.75727">
        <ele>1019</ele>
        <time>2026-04-07T09:23:01.000Z</time>
      </trkpt>
      <trkpt lat="42.93885" lon="1.75739">
        <ele>1021</ele>
        <time>2026-04-07T09:23:17.000Z</time>
      </trkpt>
      <trkpt lat="42.93882" lon="1.75752">
        <ele>1024</ele>
        <time>2026-04-07T09:25:11.000Z</time>
      </trkpt>
      <trkpt lat="42.93879" lon="1.75764">
        <ele>1026</ele>
        <time>2026-04-07T09:25:23.000Z</time>
      </trkpt>
      <trkpt lat="42.93875" lon="1.75776">
        <ele>1029</ele>
        <time>2026-04-07T09:25:36.000Z</time>
      </trkpt>
      <trkpt lat="42.93868" lon="1.75783">
        <ele>1030</ele>
        <time>2026-04-07T09:25:48.000Z</time>
      </trkpt>
      <trkpt lat="42.93861" lon="1.75778">
        <ele>1032</ele>
        <time>2026-04-07T09:26:42.000Z</time>
      </trkpt>
      <trkpt lat="42.93853" lon="1.75772">
        <ele>1033</ele>
        <time>2026-04-07T09:26:46.000Z</time>
      </trkpt>
      <trkpt lat="42.93848" lon="1.75764">
        <ele>1033</ele>
        <time>2026-04-07T09:27:11.000Z</time>
      </trkpt>
      <trkpt lat="42.9385" lon="1.75754">
        <ele>1033</ele>
        <time>2026-04-07T09:27:39.000Z</time>
      </trkpt>
      <trkpt lat="42.93852" lon="1.75763">
        <ele>1033</ele>
        <time>2026-04-07T09:28:10.000Z</time>
      </trkpt>
      <trkpt lat="42.93855" lon="1.75775">
        <ele>1032</ele>
        <time>2026-04-07T09:28:24.000Z</time>
      </trkpt>
      <trkpt lat="42.9386" lon="1.75787">
        <ele>1031</ele>
        <time>2026-04-07T09:28:33.000Z</time>
      </trkpt>
      <trkpt lat="42.93858" lon="1.75798">
        <ele>1030</ele>
        <time>2026-04-07T09:29:00.000Z</time>
      </trkpt>
      <trkpt lat="42.93853" lon="1.75809">
        <ele>1029</ele>
        <time>2026-04-07T09:29:10.000Z</time>
      </trkpt>
      <trkpt lat="42.93848" lon="1.75819">
        <ele>1029</ele>
        <time>2026-04-07T09:29:30.000Z</time>
      </trkpt>
      <trkpt lat="42.93844" lon="1.75832">
        <ele>1029</ele>
        <time>2026-04-07T09:30:08.000Z</time>
      </trkpt>
      <trkpt lat="42.93837" lon="1.75841">
        <ele>1028</ele>
        <time>2026-04-07T09:30:24.000Z</time>
      </trkpt>
      <trkpt lat="42.9383" lon="1.75848">
        <ele>1028</ele>
        <time>2026-04-07T09:30:33.000Z</time>
      </trkpt>
      <trkpt lat="42.93831" lon="1.7586">
        <ele>1029</ele>
        <time>2026-04-07T09:30:43.000Z</time>
      </trkpt>
      <trkpt lat="42.93833" lon="1.75872">
        <ele>1029</ele>
        <time>2026-04-07T09:30:54.000Z</time>
      </trkpt>
      <trkpt lat="42.93834" lon="1.75884">
        <ele>1030</ele>
        <time>2026-04-07T09:31:04.000Z</time>
      </trkpt>
      <trkpt lat="42.93831" lon="1.75895">
        <ele>1030</ele>
        <time>2026-04-07T09:31:32.000Z</time>
      </trkpt>
      <trkpt lat="42.93832" lon="1.75907">
        <ele>1031</ele>
        <time>2026-04-07T09:31:45.000Z</time>
      </trkpt>
      <trkpt lat="42.9383" lon="1.7592">
        <ele>1032</ele>
        <time>2026-04-07T09:31:51.000Z</time>
      </trkpt>
      <trkpt lat="42.93828" lon="1.75931">
        <ele>1033</ele>
        <time>2026-04-07T09:32:38.000Z</time>
      </trkpt>
      <trkpt lat="42.9383" lon="1.75943">
        <ele>1034</ele>
        <time>2026-04-07T09:32:51.000Z</time>
      </trkpt>
      <trkpt lat="42.93828" lon="1.75956">
        <ele>1034</ele>
        <time>2026-04-07T09:33:07.000Z</time>
      </trkpt>
      <trkpt lat="42.93827" lon="1.75969">
        <ele>1035</ele>
        <time>2026-04-07T09:33:24.000Z</time>
      </trkpt>
      <trkpt lat="42.93829" lon="1.75982">
        <ele>1037</ele>
        <time>2026-04-07T09:33:36.000Z</time>
      </trkpt>
      <trkpt lat="42.93827" lon="1.75995">
        <ele>1038</ele>
        <time>2026-04-07T09:33:50.000Z</time>
      </trkpt>
      <trkpt lat="42.93825" lon="1.76009">
        <ele>1039</ele>
        <time>2026-04-07T09:34:01.000Z</time>
      </trkpt>
      <trkpt lat="42.9382" lon="1.76018">
        <ele>1041</ele>
        <time>2026-04-07T09:35:36.000Z</time>
      </trkpt>
      <trkpt lat="42.93812" lon="1.7602">
        <ele>1042</ele>
        <time>2026-04-07T09:35:42.000Z</time>
      </trkpt>
      <trkpt lat="42.93804" lon="1.76025">
        <ele>1043</ele>
        <time>2026-04-07T09:35:50.000Z</time>
      </trkpt>
      <trkpt lat="42.93795" lon="1.76024">
        <ele>1045</ele>
        <time>2026-04-07T09:35:57.000Z</time>
      </trkpt>
      <trkpt lat="42.93787" lon="1.76021">
        <ele>1047</ele>
        <time>2026-04-07T09:36:05.000Z</time>
      </trkpt>
      <trkpt lat="42.93787" lon="1.7601">
        <ele>1049</ele>
        <time>2026-04-07T09:36:29.000Z</time>
      </trkpt>
      <trkpt lat="42.93792" lon="1.75999">
        <ele>1050</ele>
        <time>2026-04-07T09:47:53.000Z</time>
      </trkpt>
      <trkpt lat="42.93798" lon="1.75988">
        <ele>1050</ele>
        <time>2026-04-07T09:48:03.000Z</time>
      </trkpt>
      <trkpt lat="42.93789" lon="1.7599">
        <ele>1050</ele>
        <time>2026-04-07T09:48:18.000Z</time>
      </trkpt>
      <trkpt lat="42.93784" lon="1.75999">
        <ele>1050</ele>
        <time>2026-04-07T09:48:39.000Z</time>
      </trkpt>
      <trkpt lat="42.93787" lon="1.76009">
        <ele>1049</ele>
        <time>2026-04-07T09:49:12.000Z</time>
      </trkpt>
      <trkpt lat="42.93781" lon="1.76011">
        <ele>1049</ele>
        <time>2026-04-07T09:50:51.000Z</time>
      </trkpt>
      <trkpt lat="42.93787" lon="1.76009">
        <ele>1050</ele>
        <time>2026-04-07T09:51:24.000Z</time>
      </trkpt>
      <trkpt lat="42.93793" lon="1.76017">
        <ele>1049</ele>
        <time>2026-04-07T10:23:56.000Z</time>
      </trkpt>
      <trkpt lat="42.93797" lon="1.76028">
        <ele>1048</ele>
        <time>2026-04-07T10:24:46.000Z</time>
      </trkpt>
      <trkpt lat="42.93796" lon="1.7604">
        <ele>1047</ele>
        <time>2026-04-07T10:24:53.000Z</time>
      </trkpt>
      <trkpt lat="42.93788" lon="1.76047">
        <ele>1046</ele>
        <time>2026-04-07T10:25:01.000Z</time>
      </trkpt>
      <trkpt lat="42.9378" lon="1.76044">
        <ele>1045</ele>
        <time>2026-04-07T10:25:34.000Z</time>
      </trkpt>
      <trkpt lat="42.93772" lon="1.7604">
        <ele>1044</ele>
        <time>2026-04-07T10:25:53.000Z</time>
      </trkpt>
      <trkpt lat="42.93765" lon="1.76046">
        <ele>1044</ele>
        <time>2026-04-07T10:26:46.000Z</time>
      </trkpt>
      <trkpt lat="42.9376" lon="1.76057">
        <ele>1044</ele>
        <time>2026-04-07T10:27:00.000Z</time>
      </trkpt>
      <trkpt lat="42.93759" lon="1.7607">
        <ele>1043</ele>
        <time>2026-04-07T10:27:11.000Z</time>
      </trkpt>
      <trkpt lat="42.93755" lon="1.76083">
        <ele>1042</ele>
        <time>2026-04-07T10:27:20.000Z</time>
      </trkpt>
      <trkpt lat="42.93749" lon="1.76095">
        <ele>1040</ele>
        <time>2026-04-07T10:27:28.000Z</time>
      </trkpt>
      <trkpt lat="42.93746" lon="1.76107">
        <ele>1039</ele>
        <time>2026-04-07T10:27:54.000Z</time>
      </trkpt>
      <trkpt lat="42.93741" lon="1.76118">
        <ele>1038</ele>
        <time>2026-04-07T10:28:03.000Z</time>
      </trkpt>
      <trkpt lat="42.93736" lon="1.76129">
        <ele>1038</ele>
        <time>2026-04-07T10:28:13.000Z</time>
      </trkpt>
      <trkpt lat="42.93731" lon="1.7614">
        <ele>1037</ele>
        <time>2026-04-07T10:28:26.000Z</time>
      </trkpt>
      <trkpt lat="42.9373" lon="1.76153">
        <ele>1037</ele>
        <time>2026-04-07T10:28:36.000Z</time>
      </trkpt>
      <trkpt lat="42.93727" lon="1.76165">
        <ele>1037</ele>
        <time>2026-04-07T10:28:46.000Z</time>
      </trkpt>
      <trkpt lat="42.93727" lon="1.76176">
        <ele>1036</ele>
        <time>2026-04-07T10:29:15.000Z</time>
      </trkpt>
      <trkpt lat="42.93729" lon="1.76188">
        <ele>1036</ele>
        <time>2026-04-07T10:29:30.000Z</time>
      </trkpt>
      <trkpt lat="42.9373" lon="1.762">
        <ele>1035</ele>
        <time>2026-04-07T10:29:43.000Z</time>
      </trkpt>
      <trkpt lat="42.9373" lon="1.76213">
        <ele>1034</ele>
        <time>2026-04-07T10:29:58.000Z</time>
      </trkpt>
      <trkpt lat="42.9373" lon="1.76225">
        <ele>1034</ele>
        <time>2026-04-07T10:30:08.000Z</time>
      </trkpt>
      <trkpt lat="42.9373" lon="1.76237">
        <ele>1034</ele>
        <time>2026-04-07T10:30:17.000Z</time>
      </trkpt>
      <trkpt lat="42.93731" lon="1.7625">
        <ele>1034</ele>
        <time>2026-04-07T10:30:29.000Z</time>
      </trkpt>
      <trkpt lat="42.93728" lon="1.76262">
        <ele>1034</ele>
        <time>2026-04-07T10:30:44.000Z</time>
      </trkpt>
      <trkpt lat="42.93728" lon="1.76276">
        <ele>1034</ele>
        <time>2026-04-07T10:30:57.000Z</time>
      </trkpt>
      <trkpt lat="42.93727" lon="1.76289">
        <ele>1034</ele>
        <time>2026-04-07T10:31:10.000Z</time>
      </trkpt>
      <trkpt lat="42.93723" lon="1.76301">
        <ele>1033</ele>
        <time>2026-04-07T10:31:20.000Z</time>
      </trkpt>
      <trkpt lat="42.93719" lon="1.76313">
        <ele>1032</ele>
        <time>2026-04-07T10:31:31.000Z</time>
      </trkpt>
      <trkpt lat="42.93716" lon="1.76325">
        <ele>1031</ele>
        <time>2026-04-07T10:31:44.000Z</time>
      </trkpt>
      <trkpt lat="42.9372" lon="1.76336">
        <ele>1030</ele>
        <time>2026-04-07T10:31:55.000Z</time>
      </trkpt>
      <trkpt lat="42.93723" lon="1.76347">
        <ele>1030</ele>
        <time>2026-04-07T10:32:07.000Z</time>
      </trkpt>
      <trkpt lat="42.93729" lon="1.76355">
        <ele>1029</ele>
        <time>2026-04-07T10:32:21.000Z</time>
      </trkpt>
      <trkpt lat="42.93737" lon="1.76361">
        <ele>1028</ele>
        <time>2026-04-07T10:32:58.000Z</time>
      </trkpt>
      <trkpt lat="42.93747" lon="1.76359">
        <ele>1027</ele>
        <time>2026-04-07T10:33:13.000Z</time>
      </trkpt>
      <trkpt lat="42.93755" lon="1.76358">
        <ele>1026</ele>
        <time>2026-04-07T10:33:27.000Z</time>
      </trkpt>
      <trkpt lat="42.93761" lon="1.76368">
        <ele>1024</ele>
        <time>2026-04-07T10:33:42.000Z</time>
      </trkpt>
      <trkpt lat="42.93765" lon="1.76379">
        <ele>1022</ele>
        <time>2026-04-07T10:34:06.000Z</time>
      </trkpt>
      <trkpt lat="42.93767" lon="1.76391">
        <ele>1019</ele>
        <time>2026-04-07T10:34:14.000Z</time>
      </trkpt>
      <trkpt lat="42.93769" lon="1.76402">
        <ele>1017</ele>
        <time>2026-04-07T10:34:27.000Z</time>
      </trkpt>
      <trkpt lat="42.93775" lon="1.7641">
        <ele>1015</ele>
        <time>2026-04-07T10:34:42.000Z</time>
      </trkpt>
      <trkpt lat="42.93779" lon="1.7642">
        <ele>1012</ele>
        <time>2026-04-07T10:34:57.000Z</time>
      </trkpt>
      <trkpt lat="42.93788" lon="1.76423">
        <ele>1010</ele>
        <time>2026-04-07T10:35:09.000Z</time>
      </trkpt>
      <trkpt lat="42.93797" lon="1.76423">
        <ele>1007</ele>
        <time>2026-04-07T10:35:34.000Z</time>
      </trkpt>
      <trkpt lat="42.93804" lon="1.76416">
        <ele>1004</ele>
        <time>2026-04-07T10:35:45.000Z</time>
      </trkpt>
      <trkpt lat="42.93814" lon="1.7641">
        <ele>1002</ele>
        <time>2026-04-07T10:36:29.000Z</time>
      </trkpt>
      <trkpt lat="42.93815" lon="1.76399">
        <ele>999</ele>
        <time>2026-04-07T10:36:40.000Z</time>
      </trkpt>
      <trkpt lat="42.93823" lon="1.76396">
        <ele>997</ele>
        <time>2026-04-07T10:37:00.000Z</time>
      </trkpt>
      <trkpt lat="42.93832" lon="1.764">
        <ele>995</ele>
        <time>2026-04-07T10:37:21.000Z</time>
      </trkpt>
      <trkpt lat="42.93842" lon="1.76399">
        <ele>993</ele>
        <time>2026-04-07T10:37:28.000Z</time>
      </trkpt>
      <trkpt lat="42.9385" lon="1.76404">
        <ele>990</ele>
        <time>2026-04-07T10:37:36.000Z</time>
      </trkpt>
      <trkpt lat="42.93851" lon="1.76416">
        <ele>988</ele>
        <time>2026-04-07T10:37:46.000Z</time>
      </trkpt>
      <trkpt lat="42.93847" lon="1.76429">
        <ele>986</ele>
        <time>2026-04-07T10:37:57.000Z</time>
      </trkpt>
      <trkpt lat="42.93844" lon="1.76442">
        <ele>984</ele>
        <time>2026-04-07T10:38:07.000Z</time>
      </trkpt>
      <trkpt lat="42.93846" lon="1.76454">
        <ele>982</ele>
        <time>2026-04-07T10:38:21.000Z</time>
      </trkpt>
      <trkpt lat="42.93848" lon="1.76466">
        <ele>981</ele>
        <time>2026-04-07T10:38:35.000Z</time>
      </trkpt>
      <trkpt lat="42.93848" lon="1.76478">
        <ele>980</ele>
        <time>2026-04-07T10:39:04.000Z</time>
      </trkpt>
      <trkpt lat="42.93844" lon="1.76489">
        <ele>980</ele>
        <time>2026-04-07T10:39:14.000Z</time>
      </trkpt>
      <trkpt lat="42.93838" lon="1.76498">
        <ele>980</ele>
        <time>2026-04-07T10:39:25.000Z</time>
      </trkpt>
      <trkpt lat="42.93831" lon="1.76508">
        <ele>980</ele>
        <time>2026-04-07T10:39:33.000Z</time>
      </trkpt>
      <trkpt lat="42.93824" lon="1.76519">
        <ele>980</ele>
        <time>2026-04-07T10:39:44.000Z</time>
      </trkpt>
      <trkpt lat="42.93817" lon="1.76528">
        <ele>980</ele>
        <time>2026-04-07T10:39:57.000Z</time>
      </trkpt>
      <trkpt lat="42.9381" lon="1.76534">
        <ele>980</ele>
        <time>2026-04-07T10:40:05.000Z</time>
      </trkpt>
      <trkpt lat="42.93802" lon="1.76541">
        <ele>980</ele>
        <time>2026-04-07T10:40:15.000Z</time>
      </trkpt>
      <trkpt lat="42.93799" lon="1.76554">
        <ele>980</ele>
        <time>2026-04-07T10:40:26.000Z</time>
      </trkpt>
      <trkpt lat="42.93796" lon="1.76566">
        <ele>981</ele>
        <time>2026-04-07T10:40:34.000Z</time>
      </trkpt>
      <trkpt lat="42.93792" lon="1.76578">
        <ele>982</ele>
        <time>2026-04-07T10:40:42.000Z</time>
      </trkpt>
      <trkpt lat="42.9379" lon="1.7659">
        <ele>984</ele>
        <time>2026-04-07T10:40:53.000Z</time>
      </trkpt>
      <trkpt lat="42.93787" lon="1.76604">
        <ele>985</ele>
        <time>2026-04-07T10:41:04.000Z</time>
      </trkpt>
      <trkpt lat="42.9378" lon="1.76616">
        <ele>986</ele>
        <time>2026-04-07T10:41:15.000Z</time>
      </trkpt>
      <trkpt lat="42.93775" lon="1.76626">
        <ele>987</ele>
        <time>2026-04-07T10:41:24.000Z</time>
      </trkpt>
      <trkpt lat="42.93772" lon="1.76639">
        <ele>988</ele>
        <time>2026-04-07T10:41:35.000Z</time>
      </trkpt>
      <trkpt lat="42.93769" lon="1.76651">
        <ele>989</ele>
        <time>2026-04-07T10:41:42.000Z</time>
      </trkpt>
      <trkpt lat="42.93766" lon="1.76664">
        <ele>988</ele>
        <time>2026-04-07T10:41:52.000Z</time>
      </trkpt>
      <trkpt lat="42.93765" lon="1.76678">
        <ele>986</ele>
        <time>2026-04-07T10:42:02.000Z</time>
      </trkpt>
      <trkpt lat="42.93763" lon="1.76692">
        <ele>984</ele>
        <time>2026-04-07T10:42:37.000Z</time>
      </trkpt>
      <trkpt lat="42.93758" lon="1.76704">
        <ele>981</ele>
        <time>2026-04-07T10:42:43.000Z</time>
      </trkpt>
      <trkpt lat="42.93754" lon="1.76715">
        <ele>978</ele>
        <time>2026-04-07T10:43:11.000Z</time>
      </trkpt>
      <trkpt lat="42.93747" lon="1.76726">
        <ele>974</ele>
        <time>2026-04-07T10:44:14.000Z</time>
      </trkpt>
      <trkpt lat="42.93741" lon="1.76738">
        <ele>971</ele>
        <time>2026-04-07T10:44:22.000Z</time>
      </trkpt>
      <trkpt lat="42.93735" lon="1.76749">
        <ele>968</ele>
        <time>2026-04-07T10:44:33.000Z</time>
      </trkpt>
      <trkpt lat="42.9373" lon="1.76761">
        <ele>966</ele>
        <time>2026-04-07T10:44:44.000Z</time>
      </trkpt>
      <trkpt lat="42.93722" lon="1.7677">
        <ele>965</ele>
        <time>2026-04-07T10:44:57.000Z</time>
      </trkpt>
      <trkpt lat="42.93715" lon="1.76779">
        <ele>965</ele>
        <time>2026-04-07T10:45:08.000Z</time>
      </trkpt>
      <trkpt lat="42.93709" lon="1.76791">
        <ele>964</ele>
        <time>2026-04-07T10:45:19.000Z</time>
      </trkpt>
      <trkpt lat="42.93703" lon="1.768">
        <ele>963</ele>
        <time>2026-04-07T10:45:28.000Z</time>
      </trkpt>
      <trkpt lat="42.93695" lon="1.76805">
        <ele>962</ele>
        <time>2026-04-07T10:45:37.000Z</time>
      </trkpt>
      <trkpt lat="42.93687" lon="1.76812">
        <ele>961</ele>
        <time>2026-04-07T10:45:45.000Z</time>
      </trkpt>
      <trkpt lat="42.93678" lon="1.76817">
        <ele>961</ele>
        <time>2026-04-07T10:46:03.000Z</time>
      </trkpt>
      <trkpt lat="42.93669" lon="1.76819">
        <ele>961</ele>
        <time>2026-04-07T10:46:15.000Z</time>
      </trkpt>
      <trkpt lat="42.93662" lon="1.76815">
        <ele>961</ele>
        <time>2026-04-07T10:46:28.000Z</time>
      </trkpt>
      <trkpt lat="42.93654" lon="1.76819">
        <ele>960</ele>
        <time>2026-04-07T10:47:09.000Z</time>
      </trkpt>
      <trkpt lat="42.93646" lon="1.76822">
        <ele>960</ele>
        <time>2026-04-07T10:47:18.000Z</time>
      </trkpt>
      <trkpt lat="42.93638" lon="1.76826">
        <ele>959</ele>
        <time>2026-04-07T10:47:31.000Z</time>
      </trkpt>
      <trkpt lat="42.9363" lon="1.76833">
        <ele>958</ele>
        <time>2026-04-07T10:47:46.000Z</time>
      </trkpt>
      <trkpt lat="42.93622" lon="1.76838">
        <ele>956</ele>
        <time>2026-04-07T10:48:02.000Z</time>
      </trkpt>
      <trkpt lat="42.93615" lon="1.76847">
        <ele>954</ele>
        <time>2026-04-07T10:48:29.000Z</time>
      </trkpt>
      <trkpt lat="42.93608" lon="1.76854">
        <ele>952</ele>
        <time>2026-04-07T10:49:08.000Z</time>
      </trkpt>
      <trkpt lat="42.936" lon="1.7685">
        <ele>950</ele>
        <time>2026-04-07T10:49:26.000Z</time>
      </trkpt>
      <trkpt lat="42.93596" lon="1.76838">
        <ele>949</ele>
        <time>2026-04-07T10:49:38.000Z</time>
      </trkpt>
      <trkpt lat="42.93591" lon="1.76828">
        <ele>947</ele>
        <time>2026-04-07T10:49:55.000Z</time>
      </trkpt>
      <trkpt lat="42.93584" lon="1.76819">
        <ele>945</ele>
        <time>2026-04-07T10:50:09.000Z</time>
      </trkpt>
      <trkpt lat="42.93575" lon="1.76813">
        <ele>943</ele>
        <time>2026-04-07T10:50:25.000Z</time>
      </trkpt>
      <trkpt lat="42.93566" lon="1.76813">
        <ele>942</ele>
        <time>2026-04-07T10:50:32.000Z</time>
      </trkpt>
      <trkpt lat="42.93557" lon="1.76817">
        <ele>940</ele>
        <time>2026-04-07T10:50:43.000Z</time>
      </trkpt>
      <trkpt lat="42.93549" lon="1.76819">
        <ele>939</ele>
        <time>2026-04-07T10:50:51.000Z</time>
      </trkpt>
      <trkpt lat="42.9354" lon="1.76814">
        <ele>938</ele>
        <time>2026-04-07T10:51:04.000Z</time>
      </trkpt>
      <trkpt lat="42.93533" lon="1.76803">
        <ele>936</ele>
        <time>2026-04-07T10:51:15.000Z</time>
      </trkpt>
      <trkpt lat="42.93527" lon="1.76793">
        <ele>934</ele>
        <time>2026-04-07T10:51:23.000Z</time>
      </trkpt>
      <trkpt lat="42.93521" lon="1.76784">
        <ele>932</ele>
        <time>2026-04-07T10:51:39.000Z</time>
      </trkpt>
      <trkpt lat="42.93515" lon="1.76774">
        <ele>930</ele>
        <time>2026-04-07T10:52:07.000Z</time>
      </trkpt>
      <trkpt lat="42.9351" lon="1.76762">
        <ele>928</ele>
        <time>2026-04-07T10:52:20.000Z</time>
      </trkpt>
      <trkpt lat="42.93505" lon="1.7675">
        <ele>926</ele>
        <time>2026-04-07T10:52:35.000Z</time>
      </trkpt>
      <trkpt lat="42.93497" lon="1.76741">
        <ele>924</ele>
        <time>2026-04-07T10:52:48.000Z</time>
      </trkpt>
      <trkpt lat="42.93488" lon="1.76739">
        <ele>922</ele>
        <time>2026-04-07T10:53:02.000Z</time>
      </trkpt>
      <trkpt lat="42.93479" lon="1.76736">
        <ele>920</ele>
        <time>2026-04-07T10:53:12.000Z</time>
      </trkpt>
      <trkpt lat="42.93471" lon="1.76732">
        <ele>918</ele>
        <time>2026-04-07T10:53:21.000Z</time>
      </trkpt>
      <trkpt lat="42.93462" lon="1.76731">
        <ele>916</ele>
        <time>2026-04-07T10:53:32.000Z</time>
      </trkpt>
      <trkpt lat="42.93453" lon="1.7673">
        <ele>913</ele>
        <time>2026-04-07T10:53:41.000Z</time>
      </trkpt>
      <trkpt lat="42.93445" lon="1.76725">
        <ele>912</ele>
        <time>2026-04-07T10:53:58.000Z</time>
      </trkpt>
      <trkpt lat="42.93436" lon="1.7672">
        <ele>910</ele>
        <time>2026-04-07T10:54:20.000Z</time>
      </trkpt>
      <trkpt lat="42.93435" lon="1.76708">
        <ele>909</ele>
        <time>2026-04-07T10:54:29.000Z</time>
      </trkpt>
      <trkpt lat="42.93432" lon="1.76695">
        <ele>908</ele>
        <time>2026-04-07T10:54:42.000Z</time>
      </trkpt>
      <trkpt lat="42.9343" lon="1.76681">
        <ele>908</ele>
        <time>2026-04-07T10:54:52.000Z</time>
      </trkpt>
      <trkpt lat="42.93427" lon="1.76669">
        <ele>908</ele>
        <time>2026-04-07T10:55:02.000Z</time>
      </trkpt>
      <trkpt lat="42.9343" lon="1.76657">
        <ele>907</ele>
        <time>2026-04-07T10:56:26.000Z</time>
      </trkpt>
      <trkpt lat="42.93432" lon="1.76645">
        <ele>907</ele>
        <time>2026-04-07T10:56:35.000Z</time>
      </trkpt>
      <trkpt lat="42.93429" lon="1.76633">
        <ele>906</ele>
        <time>2026-04-07T10:57:00.000Z</time>
      </trkpt>
      <trkpt lat="42.93426" lon="1.76619">
        <ele>905</ele>
        <time>2026-04-07T10:57:07.000Z</time>
      </trkpt>
      <trkpt lat="42.93428" lon="1.76607">
        <ele>904</ele>
        <time>2026-04-07T10:57:16.000Z</time>
      </trkpt>
      <trkpt lat="42.93432" lon="1.76594">
        <ele>903</ele>
        <time>2026-04-07T10:57:24.000Z</time>
      </trkpt>
      <trkpt lat="42.93435" lon="1.76581">
        <ele>903</ele>
        <time>2026-04-07T10:57:36.000Z</time>
      </trkpt>
      <trkpt lat="42.93438" lon="1.76567">
        <ele>902</ele>
        <time>2026-04-07T10:57:45.000Z</time>
      </trkpt>
      <trkpt lat="42.93439" lon="1.76553">
        <ele>902</ele>
        <time>2026-04-07T10:57:55.000Z</time>
      </trkpt>
      <trkpt lat="42.93442" lon="1.76541">
        <ele>901</ele>
        <time>2026-04-07T10:58:06.000Z</time>
      </trkpt>
      <trkpt lat="42.93447" lon="1.76529">
        <ele>900</ele>
        <time>2026-04-07T10:58:16.000Z</time>
      </trkpt>
      <trkpt lat="42.93454" lon="1.7652">
        <ele>898</ele>
        <time>2026-04-07T10:58:25.000Z</time>
      </trkpt>
      <trkpt lat="42.93461" lon="1.76511">
        <ele>896</ele>
        <time>2026-04-07T10:58:37.000Z</time>
      </trkpt>
      <trkpt lat="42.93468" lon="1.76504">
        <ele>895</ele>
        <time>2026-04-07T10:58:45.000Z</time>
      </trkpt>
      <trkpt lat="42.93476" lon="1.76496">
        <ele>893</ele>
        <time>2026-04-07T10:58:55.000Z</time>
      </trkpt>
      <trkpt lat="42.93482" lon="1.76485">
        <ele>892</ele>
        <time>2026-04-07T10:59:08.000Z</time>
      </trkpt>
      <trkpt lat="42.93487" lon="1.76474">
        <ele>891</ele>
        <time>2026-04-07T10:59:18.000Z</time>
      </trkpt>
      <trkpt lat="42.93491" lon="1.76463">
        <ele>890</ele>
        <time>2026-04-07T10:59:34.000Z</time>
      </trkpt>
      <trkpt lat="42.93495" lon="1.76449">
        <ele>889</ele>
        <time>2026-04-07T10:59:42.000Z</time>
      </trkpt>
      <trkpt lat="42.935" lon="1.76439">
        <ele>888</ele>
        <time>2026-04-07T10:59:50.000Z</time>
      </trkpt>
      <trkpt lat="42.93507" lon="1.76429">
        <ele>887</ele>
        <time>2026-04-07T11:00:00.000Z</time>
      </trkpt>
      <trkpt lat="42.93509" lon="1.76416">
        <ele>884</ele>
        <time>2026-04-07T11:00:09.000Z</time>
      </trkpt>
      <trkpt lat="42.93509" lon="1.76402">
        <ele>881</ele>
        <time>2026-04-07T11:00:21.000Z</time>
      </trkpt>
      <trkpt lat="42.93512" lon="1.76387">
        <ele>878</ele>
        <time>2026-04-07T11:00:31.000Z</time>
      </trkpt>
      <trkpt lat="42.93515" lon="1.76376">
        <ele>874</ele>
        <time>2026-04-07T11:00:40.000Z</time>
      </trkpt>
      <trkpt lat="42.93517" lon="1.76363">
        <ele>870</ele>
        <time>2026-04-07T11:00:52.000Z</time>
      </trkpt>
      <trkpt lat="42.9352" lon="1.7635">
        <ele>867</ele>
        <time>2026-04-07T11:01:04.000Z</time>
      </trkpt>
      <trkpt lat="42.93518" lon="1.76339">
        <ele>865</ele>
        <time>2026-04-07T11:01:21.000Z</time>
      </trkpt>
      <trkpt lat="42.93515" lon="1.76328">
        <ele>863</ele>
        <time>2026-04-07T11:01:30.000Z</time>
      </trkpt>
      <trkpt lat="42.93517" lon="1.76316">
        <ele>862</ele>
        <time>2026-04-07T11:01:37.000Z</time>
      </trkpt>
      <trkpt lat="42.93521" lon="1.76305">
        <ele>861</ele>
        <time>2026-04-07T11:01:42.000Z</time>
      </trkpt>
      <trkpt lat="42.93524" lon="1.76294">
        <ele>861</ele>
        <time>2026-04-07T11:01:48.000Z</time>
      </trkpt>
      <trkpt lat="42.93524" lon="1.76282">
        <ele>860</ele>
        <time>2026-04-07T11:01:57.000Z</time>
      </trkpt>
      <trkpt lat="42.93518" lon="1.76283">
        <ele>860</ele>
        <time>2026-04-07T11:02:01.000Z</time>
      </trkpt>
      <trkpt lat="42.93513" lon="1.76274">
        <ele>860</ele>
        <time>2026-04-07T11:02:08.000Z</time>
      </trkpt>
      <trkpt lat="42.93511" lon="1.76263">
        <ele>860</ele>
        <time>2026-04-07T11:02:16.000Z</time>
      </trkpt>
      <trkpt lat="42.93513" lon="1.7625">
        <ele>860</ele>
        <time>2026-04-07T11:02:25.000Z</time>
      </trkpt>
      <trkpt lat="42.93513" lon="1.76236">
        <ele>860</ele>
        <time>2026-04-07T11:02:32.000Z</time>
      </trkpt>
      <trkpt lat="42.93512" lon="1.76224">
        <ele>859</ele>
        <time>2026-04-07T11:02:41.000Z</time>
      </trkpt>
      <trkpt lat="42.93508" lon="1.76212">
        <ele>859</ele>
        <time>2026-04-07T11:02:52.000Z</time>
      </trkpt>
      <trkpt lat="42.93505" lon="1.76199">
        <ele>858</ele>
        <time>2026-04-07T11:02:59.000Z</time>
      </trkpt>
      <trkpt lat="42.93503" lon="1.76187">
        <ele>858</ele>
        <time>2026-04-07T11:03:09.000Z</time>
      </trkpt>
      <trkpt lat="42.93498" lon="1.76177">
        <ele>858</ele>
        <time>2026-04-07T11:03:18.000Z</time>
      </trkpt>
      <trkpt lat="42.93492" lon="1.76167">
        <ele>857</ele>
        <time>2026-04-07T11:03:25.000Z</time>
      </trkpt>
      <trkpt lat="42.93484" lon="1.76159">
        <ele>856</ele>
        <time>2026-04-07T11:03:36.000Z</time>
      </trkpt>
      <trkpt lat="42.93476" lon="1.76159">
        <ele>854</ele>
        <time>2026-04-07T11:03:43.000Z</time>
      </trkpt>
      <trkpt lat="42.93466" lon="1.76162">
        <ele>853</ele>
        <time>2026-04-07T11:03:52.000Z</time>
      </trkpt>
      <trkpt lat="42.93459" lon="1.76165">
        <ele>852</ele>
        <time>2026-04-07T11:03:59.000Z</time>
      </trkpt>
      <trkpt lat="42.93458" lon="1.76154">
        <ele>851</ele>
        <time>2026-04-07T11:04:24.000Z</time>
      </trkpt>
      <trkpt lat="42.93461" lon="1.76139">
        <ele>850</ele>
        <time>2026-04-07T11:04:31.000Z</time>
      </trkpt>
      <trkpt lat="42.93467" lon="1.76129">
        <ele>849</ele>
        <time>2026-04-07T11:04:38.000Z</time>
      </trkpt>
      <trkpt lat="42.93473" lon="1.76117">
        <ele>847</ele>
        <time>2026-04-07T11:04:47.000Z</time>
      </trkpt>
      <trkpt lat="42.93475" lon="1.76103">
        <ele>846</ele>
        <time>2026-04-07T11:04:59.000Z</time>
      </trkpt>
      <trkpt lat="42.93479" lon="1.76091">
        <ele>844</ele>
        <time>2026-04-07T11:05:08.000Z</time>
      </trkpt>
      <trkpt lat="42.93484" lon="1.76079">
        <ele>842</ele>
        <time>2026-04-07T11:05:15.000Z</time>
      </trkpt>
      <trkpt lat="42.93487" lon="1.76067">
        <ele>840</ele>
        <time>2026-04-07T11:05:21.000Z</time>
      </trkpt>
      <trkpt lat="42.93488" lon="1.76053">
        <ele>839</ele>
        <time>2026-04-07T11:05:35.000Z</time>
      </trkpt>
      <trkpt lat="42.9349" lon="1.76041">
        <ele>838</ele>
        <time>2026-04-07T11:05:44.000Z</time>
      </trkpt>
      <trkpt lat="42.93495" lon="1.76028">
        <ele>838</ele>
        <time>2026-04-07T11:05:54.000Z</time>
      </trkpt>
      <trkpt lat="42.93498" lon="1.76016">
        <ele>837</ele>
        <time>2026-04-07T11:06:03.000Z</time>
      </trkpt>
      <trkpt lat="42.935" lon="1.76003">
        <ele>837</ele>
        <time>2026-04-07T11:06:12.000Z</time>
      </trkpt>
      <trkpt lat="42.93502" lon="1.7599">
        <ele>836</ele>
        <time>2026-04-07T11:06:21.000Z</time>
      </trkpt>
      <trkpt lat="42.93504" lon="1.75977">
        <ele>836</ele>
        <time>2026-04-07T11:06:29.000Z</time>
      </trkpt>
      <trkpt lat="42.93505" lon="1.75963">
        <ele>835</ele>
        <time>2026-04-07T11:06:35.000Z</time>
      </trkpt>
      <trkpt lat="42.93508" lon="1.75951">
        <ele>834</ele>
        <time>2026-04-07T11:06:45.000Z</time>
      </trkpt>
      <trkpt lat="42.9351" lon="1.75937">
        <ele>833</ele>
        <time>2026-04-07T11:08:06.000Z</time>
      </trkpt>
      <trkpt lat="42.93512" lon="1.75923">
        <ele>833</ele>
        <time>2026-04-07T11:08:14.000Z</time>
      </trkpt>
      <trkpt lat="42.93512" lon="1.7591">
        <ele>832</ele>
        <time>2026-04-07T11:08:24.000Z</time>
      </trkpt>
      <trkpt lat="42.9351" lon="1.75898">
        <ele>832</ele>
        <time>2026-04-07T11:08:31.000Z</time>
      </trkpt>
      <trkpt lat="42.93509" lon="1.75884">
        <ele>832</ele>
        <time>2026-04-07T11:08:56.000Z</time>
      </trkpt>
      <trkpt lat="42.9351" lon="1.7587">
        <ele>832</ele>
        <time>2026-04-07T11:09:05.000Z</time>
      </trkpt>
      <trkpt lat="42.9351" lon="1.75858">
        <ele>831</ele>
        <time>2026-04-07T11:09:14.000Z</time>
      </trkpt>
      <trkpt lat="42.93507" lon="1.75845">
        <ele>830</ele>
        <time>2026-04-07T11:09:26.000Z</time>
      </trkpt>
      <trkpt lat="42.93505" lon="1.75831">
        <ele>827</ele>
        <time>2026-04-07T11:09:35.000Z</time>
      </trkpt>
      <trkpt lat="42.93502" lon="1.75819">
        <ele>823</ele>
        <time>2026-04-07T11:09:43.000Z</time>
      </trkpt>
      <trkpt lat="42.93497" lon="1.75809">
        <ele>819</ele>
        <time>2026-04-07T11:09:59.000Z</time>
      </trkpt>
      <trkpt lat="42.93492" lon="1.75795">
        <ele>815</ele>
        <time>2026-04-07T11:10:20.000Z</time>
      </trkpt>
      <trkpt lat="42.93493" lon="1.75781">
        <ele>812</ele>
        <time>2026-04-07T11:10:29.000Z</time>
      </trkpt>
      <trkpt lat="42.935" lon="1.75771">
        <ele>809</ele>
        <time>2026-04-07T11:10:36.000Z</time>
      </trkpt>
      <trkpt lat="42.93508" lon="1.75762">
        <ele>807</ele>
        <time>2026-04-07T11:10:43.000Z</time>
      </trkpt>
      <trkpt lat="42.93513" lon="1.7575">
        <ele>807</ele>
        <time>2026-04-07T11:10:50.000Z</time>
      </trkpt>
      <trkpt lat="42.93516" lon="1.75737">
        <ele>809</ele>
        <time>2026-04-07T11:10:58.000Z</time>
      </trkpt>
      <trkpt lat="42.93523" lon="1.75725">
        <ele>810</ele>
        <time>2026-04-07T11:11:07.000Z</time>
      </trkpt>
      <trkpt lat="42.93529" lon="1.75714">
        <ele>813</ele>
        <time>2026-04-07T11:11:16.000Z</time>
      </trkpt>
      <trkpt lat="42.93536" lon="1.75705">
        <ele>814</ele>
        <time>2026-04-07T11:11:23.000Z</time>
      </trkpt>
      <trkpt lat="42.93542" lon="1.75696">
        <ele>816</ele>
        <time>2026-04-07T11:11:30.000Z</time>
      </trkpt>
      <trkpt lat="42.93545" lon="1.75683">
        <ele>817</ele>
        <time>2026-04-07T11:11:39.000Z</time>
      </trkpt>
      <trkpt lat="42.93546" lon="1.75671">
        <ele>818</ele>
        <time>2026-04-07T11:11:47.000Z</time>
      </trkpt>
      <trkpt lat="42.93552" lon="1.75662">
        <ele>819</ele>
        <time>2026-04-07T11:12:17.000Z</time>
      </trkpt>
      <trkpt lat="42.9356" lon="1.75656">
        <ele>820</ele>
        <time>2026-04-07T11:12:25.000Z</time>
      </trkpt>
      <trkpt lat="42.93568" lon="1.75649">
        <ele>821</ele>
        <time>2026-04-07T11:12:35.000Z</time>
      </trkpt>
      <trkpt lat="42.93571" lon="1.75639">
        <ele>822</ele>
        <time>2026-04-07T11:12:42.000Z</time>
      </trkpt>
      <trkpt lat="42.93572" lon="1.75627">
        <ele>822</ele>
        <time>2026-04-07T11:12:55.000Z</time>
      </trkpt>
      <trkpt lat="42.93565" lon="1.75618">
        <ele>821</ele>
        <time>2026-04-07T11:13:09.000Z</time>
      </trkpt>
      <trkpt lat="42.93561" lon="1.75606">
        <ele>821</ele>
        <time>2026-04-07T11:13:19.000Z</time>
      </trkpt>
      <trkpt lat="42.93563" lon="1.75594">
        <ele>821</ele>
        <time>2026-04-07T11:13:26.000Z</time>
      </trkpt>
      <trkpt lat="42.93567" lon="1.7558">
        <ele>821</ele>
        <time>2026-04-07T11:13:35.000Z</time>
      </trkpt>
      <trkpt lat="42.93566" lon="1.75568">
        <ele>821</ele>
        <time>2026-04-07T11:13:42.000Z</time>
      </trkpt>
      <trkpt lat="42.93563" lon="1.75561">
        <ele>822</ele>
        <time>2026-04-07T11:13:50.000Z</time>
      </trkpt>
      <trkpt lat="42.93563" lon="1.75577">
        <ele>822</ele>
        <time>2026-04-07T11:15:08.000Z</time>
      </trkpt>
      <trkpt lat="42.93562" lon="1.75569">
        <ele>822</ele>
        <time>2026-04-07T11:15:12.000Z</time>
      </trkpt>
      <trkpt lat="42.93557" lon="1.75556">
        <ele>822</ele>
        <time>2026-04-07T11:15:18.000Z</time>
      </trkpt>
      <trkpt lat="42.93554" lon="1.75543">
        <ele>822</ele>
        <time>2026-04-07T11:15:25.000Z</time>
      </trkpt>
      <trkpt lat="42.93555" lon="1.75531">
        <ele>822</ele>
        <time>2026-04-07T11:15:33.000Z</time>
      </trkpt>
      <trkpt lat="42.93556" lon="1.75519">
        <ele>822</ele>
        <time>2026-04-07T11:16:11.000Z</time>
      </trkpt>
      <trkpt lat="42.93553" lon="1.75506">
        <ele>823</ele>
        <time>2026-04-07T11:16:23.000Z</time>
      </trkpt>
      <trkpt lat="42.93557" lon="1.75493">
        <ele>823</ele>
        <time>2026-04-07T11:16:33.000Z</time>
      </trkpt>
      <trkpt lat="42.93564" lon="1.75483">
        <ele>823</ele>
        <time>2026-04-07T11:16:40.000Z</time>
      </trkpt>
      <trkpt lat="42.93563" lon="1.75468">
        <ele>823</ele>
        <time>2026-04-07T11:16:50.000Z</time>
      </trkpt>
      <trkpt lat="42.93555" lon="1.75463">
        <ele>823</ele>
        <time>2026-04-07T11:17:02.000Z</time>
      </trkpt>
      <trkpt lat="42.93546" lon="1.75465">
        <ele>823</ele>
        <time>2026-04-07T11:17:11.000Z</time>
      </trkpt>
      <trkpt lat="42.93537" lon="1.75462">
        <ele>823</ele>
        <time>2026-04-07T11:17:21.000Z</time>
      </trkpt>
      <trkpt lat="42.9353" lon="1.75453">
        <ele>823</ele>
        <time>2026-04-07T11:17:38.000Z</time>
      </trkpt>
    </trkseg>
  </trk>
</gpx>